Flight Track Log - Related Links

Times and Time Zones

All times are in EST time to prevent confusion due to time zone crossing. See the CAL220 flight status page for this flight to view local times or setup timezone preferences in your user account.

Time Position Orientation Groundspeed Altitude Reporting Facility
EST Latitude Longitude Course Direction KTS MPH feet Rate Location/Type
Fri 08:08:10 PM 25.0650 121.5930 103° East 153 176 1,700  Level FlightAware ADS-B
Fri 08:08:38 PM 25.0610 121.6140 102° East 153 176 2,600 1,588 Climbing FlightAware ADS-B
Fri 08:09:18 PM 25.0570 121.6470 98° East 177 204 3,500 1,040 Climbing FlightAware ADS-B
Fri 08:09:53 PM 25.0540 121.6810 96° East 228 262 3,900 732 Climbing FlightAware ADS-B
Fri 08:09:59 PM 25.0530 121.6890 98° East 238 274 4,000 2,151 Climbing FlightAware ADS-B
Fri 08:10:46 PM 25.0850 121.7410 56° Northeast 278 320 5,800 2,400 Climbing FlightAware ADS-B
Fri 08:11:04 PM 25.1020 121.7590 44° Northeast 292 336 6,600 2,836 Climbing FlightAware ADS-B
Fri 08:11:41 PM 25.1370 121.7990 46° Northeast 302 348 8,400 2,690 Climbing FlightAware ADS-B
Fri 08:12:02 PM 25.1570 121.8250 50° Northeast 317 365 9,200 2,449 Climbing FlightAware ADS-B
Fri 08:12:30 PM 25.1830 121.8640 54° Northeast 334 384 10,400 2,188 Climbing FlightAware ADS-B
Fri 08:13:27 PM 25.2390 121.9480 54° Northeast 378 435 12,300 2,214 Climbing FlightAware ADS-B
Fri 08:13:54 PM 25.2600 121.9970 65° Northeast 390 449 13,500 2,458 Climbing FlightAware ADS-B
Fri 08:14:50 PM 25.3000 122.1020 67° East 408 470 15,700 2,229 Climbing FlightAware ADS-B
Fri 08:15:39 PM 25.3340 122.2000 69° East 425 489 17,400 2,077 Climbing FlightAware ADS-B
Fri 08:16:34 PM 25.3750 122.3130 68° East 441 507 19,300 2,162 Climbing FlightAware ADS-B
Fri 08:17:30 PM 25.4280 122.4270 63° Northeast 447 514 21,400 1,929 Climbing FlightAware ADS-B
Fri 08:18:26 PM 25.4880 122.5390 59° Northeast 464 534 22,900 1,698 Climbing FlightAware ADS-B
Fri 08:19:16 PM 25.5420 122.6430 60° Northeast 471 542 24,400 1,670 Climbing FlightAware ADS-B
Fri 08:20:03 PM 25.5930 122.7430 60° Northeast 481 554 25,600 1,352 Climbing FlightAware ADS-B
Fri 08:20:27 PM 25.6200 122.7940 60° Northeast 487 560 26,000 1,325 Climbing FlightAware ADS-B
Fri 08:21:20 PM 25.6820 122.9080 59° Northeast 497 572 27,300 1,415 Climbing FlightAware ADS-B
Fri 08:22:13 PM 25.7440 123.0230 59° Northeast 503 579 28,500 1,341 Climbing FlightAware ADS-B
Fri 08:22:45 PM 25.7820 123.0950 60° Northeast 507 583 29,200 1,277 Climbing FlightAware ADS-B
Fri 08:23:47 PM 25.8590 123.2380 59° Northeast 516 594 30,500 1,212 Climbing FlightAware ADS-B
Fri 08:24:29 PM 25.9180 123.3280 54° Northeast 517 595 31,300 1,176 Climbing FlightAware ADS-B
Fri 08:25:29 PM 26.0080 123.4540 52° Northeast 520 598 32,500 1,143 Climbing FlightAware ADS-B
Fri 08:25:53 PM 26.0430 123.5030 52° Northeast 520 598 32,900 1,146 Climbing FlightAware ADS-B
Fri 08:26:58 PM 26.1400 123.6390 52° Northeast 519 597 34,200 1,213 Climbing FlightAware ADS-B
Fri 08:27:27 PM 26.1820 123.6970 51° Northeast 517 595 34,800 1,304 Climbing FlightAware ADS-B
Fri 08:28:07 PM 26.2410 123.7830 53° Northeast 513 590 35,700 1,159 Climbing FlightAware ADS-B
Fri 08:28:55 PM 26.3110 123.8840 52° Northeast 511 588 36,500 886 Climbing FlightAware ADS-B
Fri 08:29:35 PM 26.3740 123.9620 48° Northeast 497 572 37,000 727 Climbing FlightAware ADS-B
Fri 08:30:01 PM 26.4180 124.0060 42° Northeast 499 574 37,300 786 Climbing FlightAware ADS-B
Fri 08:30:59 PM 26.5170 124.1050 42° Northeast 496 571 38,100 881 Climbing FlightAware ADS-B
Fri 08:31:50 PM 26.6030 124.1920 42° Northeast 490 564 38,900 568 Climbing FlightAware ADS-B
Fri 08:32:34 PM 26.6680 124.2570 42° Northeast 490 564 39,000 65 Climbing FlightAware ADS-B
Fri 08:33:22 PM 26.7370 124.3270 42° Northeast 490 564 39,000  Level FlightAware ADS-B
Fri 08:33:49 PM 26.7740 124.3640 42° Northeast 503 579 39,000  Level FlightAware ADS-B
Fri 08:34:58 PM 26.8700 124.4610 42° Northeast 503 579 39,000  Level FlightAware ADS-B
Fri 08:35:22 PM 26.9050 124.4960 42° Northeast 503 579 39,000  Level FlightAware ADS-B
Fri 08:36:23 PM 26.9950 124.5870 42° Northeast 503 579 39,000  Level FlightAware ADS-B
Fri 08:36:59 PM 27.0480 124.6400 42° Northeast 503 579 39,000  Level FlightAware ADS-B
Fri 08:38:10 PM 27.2180 124.8140 42° Northeast 515 593 39,000  Level FlightAware ADS-B
Fri 08:38:32 PM 27.2530 124.8510 43° Northeast 516 594 39,000  Level FlightAware ADS-B
Fri 08:39:43 PM 27.3790 124.9790 42° Northeast 515 593 39,000  Level FlightAware ADS-B
Fri 08:40:07 PM 27.4150 125.0150 42° Northeast 515 593 39,000  Level FlightAware ADS-B
Fri 08:41:07 PM 27.5050 125.1070 42° Northeast 515 593 39,000  Level FlightAware ADS-B
Fri 08:42:24 PM 27.6330 125.3160 55° Northeast 523 602 39,000  Level FlightAware ADS-B
Fri 08:43:18 PM 27.7270 125.4440 50° Northeast 526 605 39,000  Level FlightAware ADS-B
Fri 08:43:57 PM 27.7870 125.5260 50° Northeast 526 605 39,000  Level FlightAware ADS-B
Fri 08:44:57 PM 27.8790 125.6520 50° Northeast 529 609 39,000  Level FlightAware ADS-B
Fri 08:45:58 PM 27.9660 125.7710 50° Northeast 529 609 39,000  Level FlightAware ADS-B
Fri 08:46:46 PM 28.0370 125.8670 50° Northeast 527 606 39,000  Level FlightAware ADS-B
Fri 08:47:46 PM 28.1350 126.0030 51° Northeast 530 610 39,000  Level FlightAware ADS-B
Fri 08:48:33 PM 28.2410 126.1490 50° Northeast 533 613 39,000  Level FlightAware ADS-B
Fri 08:49:39 PM 28.3390 126.2850 51° Northeast 534 615 39,000  Level FlightAware ADS-B
Fri 08:50:12 PM 28.3660 126.3220 50° Northeast 534 615 39,000  Level FlightAware ADS-B
Fri 08:50:49 PM 28.4210 126.3980 51° Northeast 535 616 39,000  Level FlightAware ADS-B
Fri 08:52:34 PM 28.6200 126.6760 51° Northeast 538 619 39,000  Level FlightAware ADS-B
Fri 08:53:14 PM 28.6810 126.7620 51° Northeast 540 621 39,000  Level FlightAware ADS-B
Fri 08:54:05 PM 28.7490 126.8580 51° Northeast 540 621 39,000  Level FlightAware ADS-B
Fri 08:55:04 PM 28.8550 127.0070 51° Northeast 541 623 39,000  Level FlightAware ADS-B
Fri 08:55:59 PM 28.9350 127.1190 51° Northeast 541 623 39,000  Level FlightAware ADS-B
Fri 08:56:24 PM 28.9830 127.1870 51° Northeast 541 623 39,000  Level FlightAware ADS-B
Fri 08:57:24 PM 29.0770 127.3210 51° Northeast 544 626 39,000  Level FlightAware ADS-B
Fri 08:58:14 PM 29.1440 127.4160 51° Northeast 544 626 39,000  Level FlightAware ADS-B
Fri 08:59:06 PM 29.2360 127.5470 51° Northeast 546 628 39,000  Level FlightAware ADS-B
Fri 09:00:14 PM 29.3400 127.6960 51° Northeast 547 629 39,000  Level FlightAware ADS-B
Fri 09:00:52 PM 29.3920 127.7690 51° Northeast 547 629 39,000  Level FlightAware ADS-B
Fri 09:01:26 PM 29.4380 127.8340 51° Northeast 547 629 39,000  Level FlightAware ADS-B
Fri 09:02:24 PM 29.5160 127.9460 51° Northeast 547 629 39,000  Level FlightAware ADS-B
Fri 09:03:13 PM 29.5830 128.0400 51° Northeast 547 629 39,000  Level FlightAware ADS-B
Fri 09:04:01 PM 29.6480 128.1320 51° Northeast 547 629 39,000  Level FlightAware ADS-B
Fri 09:04:49 PM 29.7130 128.2250 51° Northeast 547 629 39,000  Level FlightAware ADS-B
Fri 09:05:49 PM 29.7940 128.3400 51° Northeast 547 629 39,000  Level FlightAware ADS-B
Fri 09:08:00 PM 29.9542 128.6158 56° Northeast  Level Estimated
Fri 09:09:00 PM 30.0274 128.7424 56° Northeast  Level Estimated
Fri 09:10:00 PM 30.1004 128.8692 56° Northeast  Level Estimated
Fri 09:11:00 PM 30.1733 128.9962 56° Northeast  Level Estimated
Fri 09:12:00 PM 30.2462 129.1234 56° Northeast  Level Estimated
Fri 09:13:00 PM 30.3188 129.2508 57° Northeast  Level Estimated
Fri 09:14:00 PM 30.3914 129.3783 57° Northeast  Level Estimated
Fri 09:15:00 PM 30.4639 129.5061 57° Northeast  Level Estimated
Fri 09:16:00 PM 30.5362 129.6340 57° Northeast  Level Estimated
Fri 09:17:00 PM 30.6084 129.7621 57° Northeast  Level Estimated
Fri 09:18:00 PM 30.6804 129.8905 57° Northeast  Level Estimated
Fri 09:18:17 PM 31.0360 130.2770 57° Northeast 575 662 39,000  Level FlightAware ADS-B
Fri 09:19:02 PM 31.1000 130.3970 58° Northeast 575 662 39,000  Level FlightAware ADS-B
Fri 09:19:57 PM 31.1800 130.5510 59° Northeast 575 662 39,000  Level FlightAware ADS-B
Fri 09:20:47 PM 31.2490 130.6820 58° Northeast 577 664 39,000  Level FlightAware ADS-B
Fri 09:21:42 PM 31.3220 130.8210 58° Northeast 577 664 39,000  Level FlightAware ADS-B
Fri 09:22:42 PM 31.4070 130.9850 59° Northeast 576 663 39,000  Level FlightAware ADS-B
Fri 09:23:42 PM 31.4890 131.1440 59° Northeast 573 659 39,000  Level FlightAware ADS-B
Fri 09:24:32 PM 31.5580 131.2770 59° Northeast 574 661 39,000  Level FlightAware ADS-B
Fri 09:25:07 PM 31.6070 131.3720 59° Northeast 576 663 39,000  Level FlightAware ADS-B
Fri 09:26:00 PM 31.6770 131.5100 59° Northeast 572 658 39,000  Level FlightAware ADS-B
Fri 09:26:41 PM 31.7310 131.6150 59° Northeast 573 659 39,000  Level FlightAware ADS-B
Fri 09:27:32 PM 31.8050 131.7610 59° Northeast 579 666 39,000  Level FlightAware ADS-B
Fri 09:28:02 PM 31.8410 131.8330 60° Northeast 579 666 39,000  Level FlightAware ADS-B
Fri 09:29:02 PM 31.9270 132.0010 59° Northeast 577 664 39,000  Level FlightAware ADS-B
Fri 09:29:32 PM 31.9680 132.0840 60° Northeast 576 663 39,000  Level FlightAware ADS-B
Fri 09:30:32 PM 32.0500 132.2460 59° Northeast 576 663 39,000  Level FlightAware ADS-B
Fri 09:31:12 PM 32.1050 132.3560 59° Northeast 578 665 39,000  Level FlightAware ADS-B
Fri 09:32:02 PM 32.1670 132.4980 63° Northeast 585 673 39,000  Level FlightAware ADS-B
Fri 09:32:22 PM 32.1860 132.5410 62° Northeast 585 673 39,000  Level FlightAware ADS-B
Fri 09:33:02 PM 32.2400 132.6680 63° Northeast 587 676 39,000  Level FlightAware ADS-B
Fri 09:34:07 PM 32.3180 132.8540 64° Northeast 589 678 39,000  Level FlightAware ADS-B
Fri 09:34:52 PM 32.3710 132.9880 65° Northeast 590 679 39,000  Level FlightAware ADS-B
Fri 09:35:47 PM 32.4330 133.1430 65° Northeast 584 672 39,000  Level FlightAware ADS-B
Fri 09:36:12 PM 32.4590 133.2100 65° Northeast 584 672 39,000  Level FlightAware ADS-B
Fri 09:37:12 PM 32.5280 133.3840 65° Northeast 584 672 39,000  Level FlightAware ADS-B
Fri 09:37:52 PM 32.5760 133.5040 65° Northeast 586 674 39,000  Level FlightAware ADS-B
Fri 09:38:57 PM 32.6510 133.6970 65° Northeast 587 676 39,000  Level FlightAware ADS-B
Fri 09:39:57 PM 32.7180 133.8680 65° Northeast 588 677 39,000  Level FlightAware ADS-B
Fri 09:40:47 PM 32.7760 134.0160 65° Northeast 587 676 39,000  Level FlightAware ADS-B
Fri 09:41:37 PM 32.8330 134.1650 65° Northeast 588 677 39,000  Level FlightAware ADS-B
Fri 09:42:07 PM 32.8700 134.2590 65° Northeast 589 678 39,000  Level FlightAware ADS-B
Fri 09:42:53 PM 32.9200 134.3910 66° East 592 681 39,000  Level FlightAware ADS-B
Fri 09:43:52 PM 32.9870 134.5660 65° Northeast 594 684 39,000  Level FlightAware ADS-B
Fri 09:44:42 PM 33.0460 134.7200 65° Northeast 595 685 39,000  Level FlightAware ADS-B
Fri 09:45:12 PM 33.0800 134.8100 66° East 596 686 39,000  Level FlightAware ADS-B
Fri 09:46:17 PM 33.1530 135.0020 66° East 594 684 39,000  Level FlightAware ADS-B
Fri 09:47:07 PM 33.2090 135.1520 66° East 593 682 39,000  Level FlightAware ADS-B
Fri 09:48:02 PM 33.2690 135.3130 66° East 591 680 39,000  Level FlightAware ADS-B
Fri 09:48:32 PM 33.3030 135.4040 66° East 591 680 39,000  Level FlightAware ADS-B
Fri 09:49:27 PM 33.3650 135.5710 66° East 590 679 39,000  Level FlightAware ADS-B
Fri 09:49:52 PM 33.3910 135.6410 66° East 589 678 39,000  Level FlightAware ADS-B
Fri 09:50:52 PM 33.4550 135.8250 67° East 593 682 39,000  Level FlightAware ADS-B
Fri 09:51:17 PM 33.4770 135.9040 72° East 595 685 39,000  Level FlightAware ADS-B
Fri 09:52:12 PM 33.5230 136.0770 72° East 595 685 39,000  Level FlightAware ADS-B
Fri 09:53:04 PM 33.5640 136.2310 72° East 591 680 39,000  Level FlightAware ADS-B
Fri 09:53:32 PM 33.5880 136.3220 72° East 589 678 39,000  Level FlightAware ADS-B
Fri 09:54:02 PM 33.6140 136.4180 72° East 587 676 39,000  Level FlightAware ADS-B
Fri 09:54:48 PM 33.6500 136.5560 73° East 585 673 39,000  Level FlightAware ADS-B
Fri 09:55:36 PM 33.6880 136.7040 73° East 584 672 39,000  Level FlightAware ADS-B
Fri 09:56:26 PM 33.7270 136.8510 72° East 584 672 39,000  Level FlightAware ADS-B
Fri 09:57:08 PM 33.7590 136.9750 73° East 582 670 39,000  Level FlightAware ADS-B
Fri 09:57:53 PM 33.7980 137.1260 73° East 582 670 39,000  Level FlightAware ADS-B
Fri 09:58:57 PM 33.8510 137.3280 72° East 574 661 39,000  Level FlightAware ADS-B
Fri 09:59:43 PM 33.8990 137.4580 66° East 569 655 39,000 -250 Level FlightAware ADS-B
Fri 10:00:33 PM 33.9530 137.6040 66° East 564 649 38,600 -873 Descending FlightAware ADS-B
Fri 10:01:33 PM 34.0160 137.7750 66° East 561 646 37,400 -1,533 Descending FlightAware ADS-B
Fri 10:02:03 PM 34.0480 137.8620 66° East 561 646 36,300 -2,127 Descending FlightAware ADS-B
Fri 10:02:52 PM 34.0990 138.0010 66° East 559 643 34,600 -2,118 Descending FlightAware ADS-B
Fri 10:03:28 PM 34.1370 138.1040 66° East 556 640 33,300 -1,953 Descending FlightAware ADS-B
Fri 10:04:18 PM 34.1870 138.2400 66° East 561 646 31,800 -1,745 Descending FlightAware ADS-B
Fri 10:05:18 PM 34.2480 138.4080 66° East 566 651 30,100 -1,829 Descending FlightAware ADS-B
Fri 10:06:03 PM 34.2960 138.5410 66° East 549 632 28,600 -1,740 Descending FlightAware ADS-B
Fri 10:06:58 PM 34.3500 138.6930 67° East 533 613 27,200 -1,624 Descending FlightAware ADS-B
Fri 10:07:28 PM 34.3810 138.7800 67° East 521 600 26,300 -1,595 Descending FlightAware ADS-B
Fri 10:08:17 PM 34.4280 138.9100 66° East 527 606 25,100 -780 Descending FlightAware ADS-B
Fri 10:09:08 PM 34.4750 139.0420 67° East 525 604 25,000 -828 Descending FlightAware ADS-B
Fri 10:09:44 PM 34.5130 139.1490 67° East 507 583 23,900 -2,488 Descending FlightAware ADS-B
Fri 10:10:30 PM 34.5520 139.2610 67° East 467 537 21,600 -2,612 Descending FlightAware ADS-B
Fri 10:11:09 PM 34.5820 139.3460 67° East 436 502 20,200 -2,220 Descending FlightAware ADS-B
Fri 10:12:10 PM 34.6350 139.4670 62° Northeast 368 423 17,900 -2,208 Descending FlightAware ADS-B
Fri 10:13:14 PM 34.6970 139.5730 55° Northeast 338 389 15,600 -1,931 Descending FlightAware ADS-B
Fri 10:13:37 PM 34.7250 139.6000 38° Northeast 327 376 15,100 -1,529 Descending FlightAware ADS-B
Fri 10:14:05 PM 34.7600 139.6290 34° Northeast 326 375 14,300 -1,964 Descending FlightAware ADS-B
Fri 10:14:32 PM 34.7980 139.6400 13° North 314 361 13,300 -2,278 Descending FlightAware ADS-B
Fri 10:15:24 PM 34.8710 139.6590 12° North 296 341 11,300 -2,242 Descending FlightAware ADS-B
Fri 10:16:03 PM 34.9240 139.6730 12° North 283 326 9,900 -2,123 Descending FlightAware ADS-B
Fri 10:16:29 PM 34.9590 139.6820 12° North 284 327 9,000 -1,619 Descending FlightAware ADS-B
Fri 10:17:06 PM 35.0040 139.6950 13° North 268 308 8,200 -1,222 Descending FlightAware ADS-B
Fri 10:17:23 PM 35.0250 139.7000 11° North 267 307 7,900 -1,125 Descending FlightAware ADS-B
Fri 10:17:54 PM 35.0600 139.7090 12° North 264 304 7,300 -1,241 Descending FlightAware ADS-B
Fri 10:18:21 PM 35.0960 139.7190 13° North 268 308 6,700 -831 Descending FlightAware ADS-B
Fri 10:18:59 PM 35.1400 139.7310 13° North 248 285 6,400 -484 Descending FlightAware ADS-B
Fri 10:19:23 PM 35.1680 139.7390 13° North 234 269 6,200 -667 Descending FlightAware ADS-B
Fri 10:19:53 PM 35.1990 139.7470 12° North 219 252 5,800 -840 Descending FlightAware ADS-B
Fri 10:20:13 PM 35.2200 139.7520 11° North 218 251 5,500 -643 Descending FlightAware ADS-B
Fri 10:20:49 PM 35.2530 139.7620 14° North 198 228 5,200 -517 Descending FlightAware ADS-B
Fri 10:21:11 PM 35.2740 139.7670 11° North 186 214 5,000 -632 Descending FlightAware ADS-B
Fri 10:21:46 PM 35.3030 139.7750 13° North 186 214 4,600 -649 Descending FlightAware ADS-B
Fri 10:22:25 PM 35.3340 139.7920 24° Northeast 179 206 4,200 -787 Descending FlightAware ADS-B
Fri 10:22:47 PM 35.3500 139.8050 34° Northeast 179 206 3,800 -1,000 Descending FlightAware ADS-B
Fri 10:23:13 PM 35.3680 139.8190 32° Northeast 177 204 3,400 -1,019 Descending FlightAware ADS-B
Fri 10:23:40 PM 35.3870 139.8340 33° Northeast 157 181 2,900 -941 Descending FlightAware ADS-B
Fri 10:24:04 PM 35.4020 139.8450 31° Northeast 150 173 2,600 -585 Descending FlightAware ADS-B
Fri 10:24:21 PM 35.4110 139.8510 29° Northeast 154 177 2,500 -486 Descending FlightAware ADS-B
Fri 10:24:41 PM 35.4270 139.8520 North 147 169 2,300 -545 Descending FlightAware ADS-B
Fri 10:25:05 PM 35.4440 139.8500 355° North 150 173 2,100 -737 Descending FlightAware ADS-B
Fri 10:25:38 PM 35.4650 139.8370 333° Northwest 148 170 1,600 -800 Descending FlightAware ADS-B
Fri 10:26:05 PM 35.4790 139.8260 327° Northwest 136 157 1,300 -692 Descending FlightAware ADS-B
Fri 10:26:30 PM 35.4940 139.8160 332° Northwest 133 153 1,000 -735 Descending FlightAware ADS-B
Fri 10:26:54 PM 35.5070 139.8070 331° Northwest 134 154 700 -764 Descending FlightAware ADS-B
Fri 10:27:25 PM 35.5240 139.7950 330° Northwest 132 152 300 -783 Descending FlightAware ADS-B
Fri 10:27:40 PM 35.5320 139.7890 329° Northwest 134 154 100 -286 Descending FlightAware ADS-B
Fri 10:28:07 PM 35.5430 139.7800 326° Northwest 134 154 100  Level FlightAware ADS-B
Fri 10:30:00 PM 35.5523 139.7797 358° North  Level Estimated
Fri 10:31:00 PM 35.5523 139.7797 122° Southeast  Level Estimated
Fri 10:32:00 PM 35.5523 139.7797 122° Southeast  Level Estimated
Fri 10:33:00 PM 35.5523 139.7797 122° Southeast  Level Estimated
Fri 10:34:00 PM 35.5523 139.7797 122° Southeast  Level Estimated
Fri 10:35:00 PM 35.5523 139.7797 122° Southeast  Level Estimated
Fri 10:36:00 PM 35.5523 139.7797 122° Southeast  Level Estimated
Fri 10:37:00 PM 35.5523 139.7797 122° Southeast  Level Estimated
Fri 10:38:00 PM 35.5523 139.7797 122° Southeast  Level Estimated
Fri 10:39:00 PM 35.5523 139.7797 122° Southeast  Level Estimated
Fri 10:40:00 PM 35.5523 139.7797 122° Southeast  Level Estimated
Fri 10:41:00 PM 35.5523 139.7797 122° Southeast  Level Estimated
Fri 10:42:00 PM 35.5523 139.7797 122° Southeast  Level Estimated
Fri 10:43:00 PM 35.5523 139.7797 122° Southeast  Level Estimated
Fri 10:44:00 PM 35.5523 139.7797 122° Southeast  Level Estimated
Fri 10:45:00 PM 35.5523 139.7797 122° Southeast  Level Estimated
Fri 10:46:00 PM 35.5523 139.7797 122° Southeast  Level Estimated

Login

Don't have an account? Register now (free) for customized features, flight alerts, and more!